createdAt,value
2018-12-03T00:00:38.420Z,-2.28
2018-12-03T00:01:38.439Z,-2.36
2018-12-03T00:02:38.459Z,-2.25
2018-12-03T00:03:38.480Z,-2.37
2018-12-03T00:04:38.506Z,-2.36
2018-12-03T00:05:38.521Z,-2.34
2018-12-03T00:06:38.546Z,-2.37
2018-12-03T00:07:38.566Z,-2.34
2018-12-03T00:08:38.585Z,-2.36
2018-12-03T00:09:39.820Z,-2.36
2018-12-03T00:10:38.628Z,-2.36
2018-12-03T00:11:38.651Z,-2.39
2018-12-03T00:12:38.671Z,-2.37
2018-12-03T00:13:38.692Z,-2.36
2018-12-03T00:14:38.710Z,-2.29
2018-12-03T00:15:38.733Z,-2.34
2018-12-03T00:16:38.750Z,-2.34
2018-12-03T00:17:38.774Z,-2.28
2018-12-03T00:18:38.796Z,-2.25
2018-12-03T00:19:38.816Z,-2.29
2018-12-03T00:20:38.835Z,-2.26
2018-12-03T00:21:38.856Z,-2.33
2018-12-03T00:22:38.877Z,-2.23
2018-12-03T00:23:38.897Z,-2.29
2018-12-03T00:24:38.918Z,-2.40
2018-12-03T00:25:38.939Z,-2.28
2018-12-03T00:26:38.961Z,-2.25
2018-12-03T00:27:38.982Z,-2.32
2018-12-03T00:28:39.001Z,-2.32
2018-12-03T00:29:39.024Z,-2.22
2018-12-03T00:30:39.045Z,-2.20
2018-12-03T00:31:39.070Z,-2.25
2018-12-03T00:32:39.086Z,-2.18
2018-12-03T00:33:39.106Z,-2.20
2018-12-03T00:34:39.130Z,-2.14
2018-12-03T00:35:39.149Z,-2.14
2018-12-03T00:36:39.170Z,-2.13
2018-12-03T00:37:39.191Z,-2.04
2018-12-03T00:38:39.212Z,-2.05
2018-12-03T00:39:39.232Z,-2.04
2018-12-03T00:40:39.252Z,-2.05
2018-12-03T00:41:39.339Z,-1.99
2018-12-03T00:42:39.295Z,-1.94
2018-12-03T00:43:39.316Z,-1.84
2018-12-03T00:44:39.338Z,-1.90
2018-12-03T00:45:39.359Z,-1.86
2018-12-03T00:46:39.381Z,-1.84
2018-12-03T00:47:39.399Z,-1.86
2018-12-03T00:48:39.422Z,-1.82
2018-12-03T00:49:39.444Z,-1.72
2018-12-03T00:50:39.461Z,-1.71
2018-12-03T00:51:39.487Z,-1.68
2018-12-03T00:52:39.505Z,-1.72
2018-12-03T00:53:39.526Z,-1.72
2018-12-03T00:54:39.547Z,-1.71
2018-12-03T00:55:39.568Z,-1.66
2018-12-03T00:56:39.595Z,-1.68
2018-12-03T00:57:39.612Z,-1.66
2018-12-03T00:58:39.639Z,-1.53
2018-12-03T00:59:39.652Z,-1.53
2018-12-03T01:00:39.675Z,-1.53
2018-12-03T01:01:39.693Z,-1.56
2018-12-03T01:02:39.716Z,-1.51
2018-12-03T01:03:39.736Z,-1.53
2018-12-03T01:04:39.764Z,-1.56
2018-12-03T01:05:39.782Z,-1.56
2018-12-03T01:06:39.800Z,-1.51
2018-12-03T01:07:39.821Z,-1.54
2018-12-03T01:08:39.845Z,-1.51
2018-12-03T01:09:39.863Z,-1.43
2018-12-03T01:10:39.887Z,-1.45
2018-12-03T01:11:39.906Z,-1.45
2018-12-03T01:12:39.929Z,-1.57
2018-12-03T01:13:39.949Z,-1.51
2018-12-03T01:14:39.974Z,-1.53
2018-12-03T01:15:39.994Z,-1.54
2018-12-03T01:16:40.014Z,-1.50
2018-12-03T01:17:40.034Z,-1.50
2018-12-03T01:18:40.055Z,-1.51
2018-12-03T01:19:40.077Z,-1.50
2018-12-03T01:20:40.098Z,-1.48
2018-12-03T01:21:40.119Z,-1.46
2018-12-03T01:22:40.141Z,-1.48
2018-12-03T01:23:40.165Z,-1.50
2018-12-03T01:24:40.185Z,-1.40
2018-12-03T01:25:40.204Z,-1.45
2018-12-03T01:26:40.226Z,-1.45
2018-12-03T01:27:40.247Z,-1.42
2018-12-03T01:28:40.268Z,-1.45
2018-12-03T01:29:40.290Z,-1.42
2018-12-03T01:30:40.311Z,-1.42
2018-12-03T01:31:40.335Z,-1.46
2018-12-03T01:32:40.358Z,-1.42
2018-12-03T01:33:40.375Z,-1.45
2018-12-03T01:34:40.395Z,-1.45
2018-12-03T01:35:40.420Z,-1.36
2018-12-03T01:36:40.439Z,-1.39
2018-12-03T01:37:40.460Z,-1.51
2018-12-03T01:38:40.482Z,-1.48
2018-12-03T01:39:40.502Z,-1.46
2018-12-03T01:40:40.526Z,-1.54
2018-12-03T01:41:40.545Z,-1.56
2018-12-03T01:42:40.565Z,-1.51
2018-12-03T01:43:40.592Z,-1.42
2018-12-03T01:44:40.610Z,-1.38
2018-12-03T01:45:40.632Z,-1.35
2018-12-03T01:46:40.654Z,-1.35
2018-12-03T01:47:40.676Z,-1.32
2018-12-03T01:48:40.700Z,-1.35
2018-12-03T01:49:40.718Z,-1.29
2018-12-03T01:50:40.737Z,-1.35
2018-12-03T01:51:40.760Z,-1.33
2018-12-03T01:52:40.781Z,-1.36
2018-12-03T01:53:40.801Z,-1.33
2018-12-03T01:54:40.828Z,-1.39
2018-12-03T01:55:40.847Z,-1.33
2018-12-03T01:56:40.866Z,-1.32
2018-12-03T01:57:40.889Z,-1.35
2018-12-03T01:58:40.908Z,-1.29
2018-12-03T01:59:40.932Z,-1.36
2018-12-03T02:00:40.952Z,-1.33
2018-12-03T02:01:40.977Z,-1.35
2018-12-03T02:02:40.994Z,-1.30
2018-12-03T02:03:41.017Z,-1.32
2018-12-03T02:04:41.038Z,-1.29
2018-12-03T02:05:41.058Z,-1.33
2018-12-03T02:06:41.080Z,-1.33
2018-12-03T02:07:41.101Z,-1.32
2018-12-03T02:08:41.122Z,-1.38
2018-12-03T02:09:41.144Z,-1.39
2018-12-03T02:10:41.172Z,-1.27
2018-12-03T02:11:41.187Z,-1.35
2018-12-03T02:12:41.210Z,-1.35
2018-12-03T02:13:41.231Z,-1.24
2018-12-03T02:14:41.256Z,-1.27
2018-12-03T02:15:41.274Z,-1.22
2018-12-03T02:16:41.297Z,-1.30
2018-12-03T02:17:41.316Z,-1.38
2018-12-03T02:18:41.337Z,-1.30
2018-12-03T02:19:41.359Z,-1.32
2018-12-03T02:20:41.382Z,-1.29
2018-12-03T02:21:41.405Z,-1.25
2018-12-03T02:22:41.423Z,-1.30
2018-12-03T02:23:41.447Z,-1.29
2018-12-03T02:24:41.469Z,-1.24
2018-12-03T02:25:41.488Z,-1.30
2018-12-03T02:26:41.510Z,-1.25
2018-12-03T02:27:41.532Z,-1.27
2018-12-03T02:28:41.554Z,-1.25
2018-12-03T02:29:41.573Z,-1.21
2018-12-03T02:30:41.599Z,-1.32
2018-12-03T02:31:41.616Z,-1.19
2018-12-03T02:32:41.645Z,-1.22
2018-12-03T02:33:41.665Z,-1.19
2018-12-03T02:34:41.683Z,-1.32
2018-12-03T02:35:41.704Z,-1.25
2018-12-03T02:36:41.727Z,-1.25
2018-12-03T02:37:41.749Z,-1.22
2018-12-03T02:38:41.767Z,-1.24
2018-12-03T02:39:41.792Z,-1.19
2018-12-03T02:40:41.812Z,-1.25
2018-12-03T02:41:41.832Z,-1.19
2018-12-03T02:42:41.853Z,-1.21
2018-12-03T02:43:41.876Z,-1.25
2018-12-03T02:44:41.897Z,-1.21
2018-12-03T02:45:41.919Z,-1.18
2018-12-03T02:46:41.940Z,-1.18
2018-12-03T02:47:41.978Z,-1.15
2018-12-03T02:48:41.989Z,-1.15
2018-12-03T02:49:42.006Z,-1.25
2018-12-03T02:50:42.025Z,-1.22
2018-12-03T02:51:42.051Z,-1.14
2018-12-03T02:52:42.071Z,-1.22
2018-12-03T02:53:42.093Z,-1.18
2018-12-03T02:54:42.111Z,-1.14
2018-12-03T02:55:42.133Z,-1.21
2018-12-03T02:56:42.155Z,-1.19
2018-12-03T02:57:42.178Z,-1.12
2018-12-03T02:58:42.203Z,-1.21
2018-12-03T02:59:42.219Z,-1.15
2018-12-03T03:00:42.240Z,-1.17
2018-12-03T03:01:42.261Z,-1.19
2018-12-03T03:02:42.296Z,-1.12
2018-12-03T03:03:42.306Z,-1.19
2018-12-03T03:04:42.326Z,-1.27
2018-12-03T03:05:42.347Z,-1.22
2018-12-03T03:06:42.369Z,-1.22
2018-12-03T03:07:42.391Z,-1.21
2018-12-03T03:08:42.414Z,-1.19
2018-12-03T03:09:42.434Z,-1.18
2018-12-03T03:10:42.459Z,-1.22
2018-12-03T03:11:42.477Z,-1.21
2018-12-03T03:12:42.497Z,-1.14
2018-12-03T03:13:42.521Z,-1.22
2018-12-03T03:14:42.540Z,-1.14
2018-12-03T03:15:42.567Z,-1.12
2018-12-03T03:16:42.582Z,-1.19
2018-12-03T03:17:42.606Z,-1.14
2018-12-03T03:18:42.627Z,-1.14
2018-12-03T03:19:42.650Z,-1.21
2018-12-03T03:20:42.672Z,-1.14
2018-12-03T03:21:42.692Z,-1.22
2018-12-03T03:22:42.714Z,-1.19
2018-12-03T03:23:42.739Z,-1.17
2018-12-03T03:24:42.755Z,-1.11
2018-12-03T03:25:42.779Z,-1.22
2018-12-03T03:26:42.802Z,-1.11
2018-12-03T03:27:42.820Z,-1.21
2018-12-03T03:28:42.841Z,-1.15
2018-12-03T03:29:42.870Z,-1.25
2018-12-03T03:30:42.885Z,-1.12
2018-12-03T03:31:42.909Z,-1.14
2018-12-03T03:32:42.942Z,-1.17
2018-12-03T03:33:42.952Z,-1.11
2018-12-03T03:34:42.978Z,-1.21
2018-12-03T03:35:42.992Z,-1.18
2018-12-03T03:36:43.021Z,-1.22
2018-12-03T03:37:43.048Z,-1.21
2018-12-03T03:38:43.059Z,-1.22
2018-12-03T03:39:43.081Z,-1.18
2018-12-03T03:40:43.102Z,-1.18
2018-12-03T03:41:43.127Z,-1.14
2018-12-03T03:42:43.146Z,-1.12
2018-12-03T03:43:43.168Z,-1.21
2018-12-03T03:44:43.195Z,-1.14
2018-12-03T03:45:43.213Z,-1.15
2018-12-03T03:46:43.232Z,-1.11
2018-12-03T03:47:43.265Z,-1.07
2018-12-03T03:48:43.276Z,-1.07
2018-12-03T03:49:43.298Z,-1.14
2018-12-03T03:50:43.320Z,-1.09
2018-12-03T03:51:43.344Z,-1.14
2018-12-03T03:52:43.364Z,-1.15
2018-12-03T03:53:43.386Z,-1.11
2018-12-03T03:54:43.407Z,-1.12
2018-12-03T03:55:43.429Z,-1.11
2018-12-03T03:56:43.451Z,-1.21
2018-12-03T03:57:43.471Z,-1.11
2018-12-03T03:58:43.499Z,-1.06
2018-12-03T03:59:43.521Z,-1.12
2018-12-03T04:00:43.537Z,-1.11
2018-12-03T04:01:43.560Z,-1.18
2018-12-03T04:02:43.583Z,-1.07
2018-12-03T04:03:43.603Z,-1.04
2018-12-03T04:04:43.625Z,-1.09
2018-12-03T04:05:43.648Z,-1.06
2018-12-03T04:06:43.670Z,-1.06
2018-12-03T04:07:43.690Z,-1.06
2018-12-03T04:08:43.711Z,-1.14
2018-12-03T04:09:43.739Z,-1.11
2018-12-03T04:10:43.762Z,-1.17
2018-12-03T04:11:43.776Z,-1.15
2018-12-03T04:12:43.797Z,-1.15
2018-12-03T04:13:43.820Z,-1.09
2018-12-03T04:14:43.842Z,-1.06
2018-12-03T04:15:43.865Z,-1.06
2018-12-03T04:16:43.890Z,-1.11
2018-12-03T04:17:43.905Z,-1.09
2018-12-03T04:18:43.927Z,-1.21
2018-12-03T04:19:43.951Z,-1.15
2018-12-03T04:20:43.978Z,-1.12
2018-12-03T04:21:43.992Z,-1.07
2018-12-03T04:22:44.014Z,-1.07
2018-12-03T04:23:44.039Z,-1.14
2018-12-03T04:24:44.057Z,-1.06
2018-12-03T04:25:44.079Z,-1.06
2018-12-03T04:26:44.105Z,-1.15
2018-12-03T04:27:44.124Z,-1.18
2018-12-03T04:28:44.144Z,-1.12
2018-12-03T04:29:44.167Z,-1.06
2018-12-03T04:30:44.191Z,-1.14
2018-12-03T04:31:44.210Z,-1.04
2018-12-03T04:32:44.230Z,-1.12
2018-12-03T04:33:44.252Z,-1.17
2018-12-03T04:34:44.277Z,-1.03
2018-12-03T04:35:44.296Z,-1.12
2018-12-03T04:36:44.323Z,-1.11
2018-12-03T04:37:44.343Z,-1.11
2018-12-03T04:38:44.362Z,-1.12
2018-12-03T04:39:44.385Z,-1.03
2018-12-03T04:40:44.406Z,-1.07
2018-12-03T04:41:44.424Z,-1.06
2018-12-03T04:42:44.453Z,-1.09
2018-12-03T04:43:44.469Z,-1.06
2018-12-03T04:44:44.490Z,-1.12
2018-12-03T04:45:44.511Z,-1.09
2018-12-03T04:46:44.537Z,-1.11
2018-12-03T04:47:44.554Z,-1.15
2018-12-03T04:48:44.579Z,-1.11
2018-12-03T04:49:44.600Z,-1.17
2018-12-03T04:50:44.621Z,-1.15
2018-12-03T04:51:44.646Z,-1.14
2018-12-03T04:52:44.663Z,-1.14
2018-12-03T04:53:44.686Z,-1.07
2018-12-03T04:54:44.710Z,-1.12
2018-12-03T04:55:44.729Z,-1.07
2018-12-03T04:56:44.750Z,-1.12
2018-12-03T04:57:44.773Z,-1.09
2018-12-03T04:58:44.793Z,-1.12
2018-12-03T04:59:44.817Z,-1.11
2018-12-03T05:00:44.839Z,-1.17
2018-12-03T05:01:44.857Z,-1.06
2018-12-03T05:02:44.895Z,-1.09
2018-12-03T05:03:44.904Z,-1.14
2018-12-03T05:04:44.922Z,-1.15
2018-12-03T05:05:44.950Z,-1.15
2018-12-03T05:06:44.965Z,-1.06
2018-12-03T05:07:44.990Z,-1.22
2018-12-03T05:08:45.010Z,-1.09
2018-12-03T05:09:45.033Z,-1.12
2018-12-03T05:10:45.057Z,-1.11
2018-12-03T05:11:45.081Z,-1.09
2018-12-03T05:12:45.101Z,-1.07
2018-12-03T05:13:45.119Z,-1.14
2018-12-03T05:14:45.144Z,-1.09
2018-12-03T05:15:45.162Z,-1.15
2018-12-03T05:16:45.189Z,-1.12
2018-12-03T05:17:45.204Z,-1.06
2018-12-03T05:18:45.226Z,-1.07
2018-12-03T05:19:45.248Z,-1.17
2018-12-03T05:20:45.272Z,-1.19
2018-12-03T05:21:45.293Z,-1.19
2018-12-03T05:22:45.314Z,-1.11
2018-12-03T05:23:45.336Z,-1.09
2018-12-03T05:24:45.400Z,-1.12
2018-12-03T05:25:45.382Z,-1.09
2018-12-03T05:26:45.400Z,-1.15
2018-12-03T05:27:45.422Z,-1.14
2018-12-03T05:28:45.445Z,-1.06
2018-12-03T05:29:45.464Z,-1.18
2018-12-03T05:30:45.487Z,-1.11
2018-12-03T05:31:45.510Z,-1.12
2018-12-03T05:32:45.529Z,-1.18
2018-12-03T05:33:45.558Z,-1.04
2018-12-03T05:34:45.583Z,-1.14
2018-12-03T05:35:45.598Z,-1.04
2018-12-03T05:36:45.617Z,-1.09
2018-12-03T05:37:45.638Z,-1.01
2018-12-03T05:38:45.660Z,-1.11
2018-12-03T05:39:45.682Z,-1.15
2018-12-03T05:40:45.708Z,-1.17
2018-12-03T05:41:45.732Z,-1.11
2018-12-03T05:42:45.753Z,-1.14
2018-12-03T05:43:45.771Z,-1.06
2018-12-03T05:44:45.795Z,-1.15
2018-12-03T05:45:45.818Z,-1.14
2018-12-03T05:46:45.833Z,-1.11
2018-12-03T05:47:45.857Z,-1.14
2018-12-03T05:48:45.877Z,-1.12
2018-12-03T05:49:45.898Z,-1.07
2018-12-03T05:50:45.922Z,-1.09
2018-12-03T05:51:45.942Z,-1.14
2018-12-03T05:52:45.963Z,-1.03
2018-12-03T05:53:45.983Z,-1.15
2018-12-03T05:54:46.008Z,-1.14
2018-12-03T05:55:46.031Z,-1.11
2018-12-03T05:56:46.049Z,-1.03
2018-12-03T05:57:46.072Z,-1.09
2018-12-03T05:58:46.093Z,-1.11
2018-12-03T05:59:46.121Z,-1.15
2018-12-03T06:00:46.134Z,-1.09
2018-12-03T06:01:46.162Z,-1.18
2018-12-03T06:02:46.182Z,-1.18
2018-12-03T06:03:46.200Z,-1.01
2018-12-03T06:04:46.221Z,-1.12
2018-12-03T06:05:46.244Z,-0.99
2018-12-03T06:06:46.266Z,-1.14
2018-12-03T06:07:46.286Z,-1.09
2018-12-03T06:08:46.307Z,-1.01
2018-12-03T06:09:46.329Z,-1.17
2018-12-03T06:10:46.352Z,-0.99
2018-12-03T06:11:46.374Z,-1.00
2018-12-03T06:12:46.395Z,-1.00
2018-12-03T06:13:46.416Z,-1.09
2018-12-03T06:14:46.437Z,-1.11
2018-12-03T06:15:46.459Z,-1.14
2018-12-03T06:16:46.481Z,-1.01
2018-12-03T06:17:46.504Z,-0.99
2018-12-03T06:18:46.528Z,-1.01
2018-12-03T06:19:46.549Z,-1.07
2018-12-03T06:20:46.569Z,-1.00
2018-12-03T06:21:46.590Z,-0.91
2018-12-03T06:22:46.622Z,-0.89
2018-12-03T06:23:46.632Z,-0.89
2018-12-03T06:24:46.654Z,-1.00
2018-12-03T06:25:46.676Z,-0.97
2018-12-03T06:26:46.699Z,-0.99
2018-12-03T06:27:46.720Z,-0.89
2018-12-03T06:28:46.741Z,-0.97
2018-12-03T06:29:46.763Z,-0.84
2018-12-03T06:30:46.786Z,-0.87
2018-12-03T06:31:46.811Z,-0.93
2018-12-03T06:32:46.829Z,-0.93
2018-12-03T06:33:46.849Z,-0.94
2018-12-03T06:34:46.871Z,-0.91
2018-12-03T06:35:46.893Z,-0.78
2018-12-03T06:36:46.915Z,-0.85
2018-12-03T06:37:46.936Z,-0.84
2018-12-03T06:38:46.958Z,-0.77
2018-12-03T06:39:46.982Z,-0.85
2018-12-03T06:40:47.004Z,-0.82
2018-12-03T06:41:47.024Z,-0.77
2018-12-03T06:42:47.047Z,-0.81
2018-12-03T06:43:47.067Z,-0.78
2018-12-03T06:44:47.090Z,-0.81
2018-12-03T06:45:47.113Z,-0.85
2018-12-03T06:46:47.133Z,-0.85
2018-12-03T06:47:47.154Z,-0.82
2018-12-03T06:48:47.179Z,-0.81
2018-12-03T06:49:47.201Z,-0.74
2018-12-03T06:50:47.220Z,-0.81
2018-12-03T06:51:47.242Z,-0.77
2018-12-03T06:52:47.262Z,-0.80
2018-12-03T06:53:47.289Z,-0.74
2018-12-03T06:54:47.307Z,-0.77
2018-12-03T06:55:47.329Z,-0.72
2018-12-03T06:56:47.350Z,-0.64
2018-12-03T06:57:47.372Z,-0.75
2018-12-03T06:58:47.398Z,-0.75
2018-12-03T06:59:47.418Z,-0.64
2018-12-03T07:00:47.436Z,-0.70
2018-12-03T07:01:47.467Z,-0.67
2018-12-03T07:02:47.481Z,-0.64
2018-12-03T07:03:47.504Z,-0.70
2018-12-03T07:04:47.523Z,-0.64
2018-12-03T07:05:47.549Z,-0.64
2018-12-03T07:06:47.569Z,-0.67
2018-12-03T07:07:47.592Z,-0.66
2018-12-03T07:08:47.612Z,-0.64
2018-12-03T07:09:47.633Z,-0.57
2018-12-03T07:10:47.655Z,-0.56
2018-12-03T07:11:47.680Z,-0.57
2018-12-03T07:12:47.699Z,-0.62
2018-12-03T07:13:47.721Z,-0.66
2018-12-03T07:14:47.743Z,-0.60
2018-12-03T07:15:47.767Z,-0.57
2018-12-03T07:16:47.788Z,-0.54
2018-12-03T07:17:47.807Z,-0.53
2018-12-03T07:18:47.832Z,-0.54
2018-12-03T07:19:47.853Z,-0.59
2018-12-03T07:20:47.874Z,-0.54
2018-12-03T07:21:47.895Z,-0.56
2018-12-03T07:22:47.918Z,-0.51
2018-12-03T07:23:47.939Z,-0.57
2018-12-03T07:24:47.961Z,-0.49
2018-12-03T07:25:47.990Z,-0.48
2018-12-03T07:26:48.007Z,-0.51
2018-12-03T07:27:48.028Z,-0.54
2018-12-03T07:28:48.049Z,-0.51
2018-12-03T07:31:48.114Z,-0.54
2018-12-03T07:32:48.134Z,-0.54
2018-12-03T07:33:48.159Z,-0.49
2018-12-03T07:34:48.180Z,-0.54
2018-12-03T07:35:48.203Z,-0.51
2018-12-03T07:36:48.223Z,-0.62
2018-12-03T07:37:48.245Z,-0.46
2018-12-03T07:38:48.268Z,-0.53
2018-12-03T07:39:48.292Z,-0.48
2018-12-03T07:40:48.311Z,-0.49
2018-12-03T07:41:48.336Z,-0.49
2018-12-03T07:42:48.356Z,-0.56
2018-12-03T07:43:48.376Z,-0.54
2018-12-03T07:44:48.398Z,-0.53
2018-12-03T07:45:48.420Z,-0.49
2018-12-03T07:46:48.447Z,-0.46
2018-12-03T07:47:48.472Z,-0.57
2018-12-03T07:48:48.486Z,-0.48
2018-12-03T07:49:48.508Z,-0.53
2018-12-03T07:50:48.532Z,-0.48
2018-12-03T07:51:48.554Z,-0.59
2018-12-03T07:52:48.573Z,-0.57
2018-12-03T07:53:48.596Z,-0.45
2018-12-03T07:54:48.618Z,-0.57
2018-12-03T07:55:48.639Z,-0.51
2018-12-03T07:56:48.664Z,-0.48
2018-12-03T07:57:48.685Z,-0.53
2018-12-03T07:58:48.705Z,-0.51
2018-12-03T07:59:48.727Z,-0.44
2018-12-03T08:00:48.748Z,-0.46
2018-12-03T08:01:48.772Z,-0.49
2018-12-03T08:02:48.791Z,-0.44
2018-12-03T08:03:48.817Z,-0.44
2018-12-03T08:04:48.838Z,-0.45
2018-12-03T08:05:48.861Z,-0.44
2018-12-03T08:06:48.879Z,-0.54
2018-12-03T08:07:48.902Z,-0.60
2018-12-03T08:08:48.924Z,-0.49
2018-12-03T08:09:48.949Z,-0.46
2018-12-03T08:10:48.967Z,-0.56
2018-12-03T08:11:48.991Z,-0.48
2018-12-03T08:12:49.014Z,-0.44
2018-12-03T08:13:49.037Z,-0.51
2018-12-03T08:14:49.056Z,-0.56
2018-12-03T08:15:49.079Z,-0.56
2018-12-03T08:16:49.102Z,-0.49
2018-12-03T08:17:49.123Z,-0.42
2018-12-03T08:18:49.148Z,-0.51
2018-12-03T08:19:49.165Z,-0.45
2018-12-03T08:20:49.193Z,-0.56
2018-12-03T08:21:49.210Z,-0.42
2018-12-03T08:22:49.233Z,-0.45
2018-12-03T08:26:49.323Z,-0.45
2018-12-03T08:27:49.346Z,-0.44
2018-12-03T08:28:49.365Z,-0.45
2018-12-03T08:29:49.388Z,-0.57
2018-12-03T08:30:49.413Z,-0.48
2018-12-03T08:31:49.431Z,-0.45
2018-12-03T08:32:49.452Z,-0.46
2018-12-03T08:33:49.478Z,-0.56
2018-12-03T08:34:49.497Z,-0.49
2018-12-03T08:35:49.526Z,-0.48
2018-12-03T08:36:49.542Z,-0.53
2018-12-03T08:37:49.563Z,-0.49
2018-12-03T08:38:49.587Z,-0.45
2018-12-03T08:39:49.611Z,-0.44
2018-12-03T08:40:49.632Z,-0.41
2018-12-03T08:41:49.655Z,-0.49
2018-12-03T08:42:49.676Z,-0.46
2018-12-03T08:43:49.700Z,-0.39
2018-12-03T08:44:49.718Z,-0.46
2018-12-03T08:45:49.742Z,-0.42
2018-12-03T08:46:49.767Z,-0.46
2018-12-03T08:47:49.788Z,-0.39
2018-12-03T08:48:49.808Z,-0.39
2018-12-03T08:49:49.836Z,-0.45
2018-12-03T08:50:49.853Z,-0.41
2018-12-03T08:51:49.878Z,-0.46
2018-12-03T08:52:49.897Z,-0.42
2018-12-03T08:53:49.922Z,-0.44
2018-12-03T08:54:49.942Z,-0.28
2018-12-03T08:55:49.965Z,-0.24
2018-12-03T08:56:49.985Z,-0.30
2018-12-03T08:57:50.012Z,-0.30
2018-12-03T08:58:50.031Z,-0.28
2018-12-03T08:59:50.055Z,-0.23
2018-12-03T09:00:50.076Z,-0.26
2018-12-03T09:01:50.100Z,-0.27
2018-12-03T09:02:50.124Z,-0.28
2018-12-03T09:03:50.143Z,-0.31
2018-12-03T09:04:50.167Z,-0.20
2018-12-03T09:05:50.189Z,-0.24
2018-12-03T09:06:50.216Z,-0.17
2018-12-03T09:07:50.242Z,-0.20
2018-12-03T09:08:50.254Z,-0.24
2018-12-03T09:09:50.278Z,-0.20
2018-12-03T09:10:50.301Z,-0.27
2018-12-03T09:11:50.324Z,-0.17
2018-12-03T09:12:50.352Z,-0.30
2018-12-03T09:13:50.373Z,-0.18
2018-12-03T09:14:50.392Z,-0.31
2018-12-03T09:15:50.413Z,-0.20
2018-12-03T09:16:50.436Z,-0.21
2018-12-03T09:17:50.464Z,-0.23
2018-12-03T09:18:50.482Z,-0.26
2018-12-03T09:19:50.506Z,-0.27
2018-12-03T09:20:50.531Z,-0.24
2018-12-03T09:21:50.549Z,-0.28
2018-12-03T09:22:50.572Z,-0.24
2018-12-03T09:23:50.597Z,-0.28
2018-12-03T09:24:50.619Z,-0.26
2018-12-03T09:25:50.639Z,-0.17
2018-12-03T09:26:50.663Z,-0.23
2018-12-03T09:27:50.686Z,-0.12
2018-12-03T09:28:50.707Z,-0.13
2018-12-03T09:29:50.731Z,-0.26
2018-12-03T09:30:50.753Z,-0.17
2018-12-03T09:31:50.776Z,-0.18
2018-12-03T09:32:50.800Z,-0.24
2018-12-03T09:33:50.822Z,-0.18
2018-12-03T09:34:50.846Z,-0.10
2018-12-03T09:35:50.865Z,-0.12
2018-12-03T09:36:50.890Z,-0.09
2018-12-03T09:37:50.912Z,-0.10
2018-12-03T09:38:50.934Z,-0.06
2018-12-03T09:39:50.957Z,-0.05
2018-12-03T09:40:50.979Z,0.00
2018-12-03T09:41:51.002Z,0.06
2018-12-03T09:42:51.025Z,0.08
2018-12-03T09:43:51.049Z,0.15
2018-12-03T09:44:51.072Z,0.18
2018-12-03T09:45:51.097Z,0.16
2018-12-03T09:46:51.118Z,0.24
2018-12-03T09:47:54.266Z,0.29
2018-12-03T09:48:51.161Z,0.20
2018-12-03T09:49:51.185Z,0.30
2018-12-03T09:50:51.208Z,0.19
2018-12-03T09:51:51.234Z,0.30
2018-12-03T09:52:51.262Z,0.40
2018-12-03T09:53:51.276Z,0.26
2018-12-03T09:54:51.299Z,0.31
2018-12-03T09:55:51.325Z,0.36
2018-12-03T09:56:51.345Z,0.40
2018-12-03T09:57:51.375Z,0.44
2018-12-03T09:58:51.395Z,0.42
2018-12-03T09:59:51.416Z,0.40
2018-12-03T10:00:51.437Z,0.31
2018-12-03T10:01:51.463Z,0.27
2018-12-03T10:02:51.485Z,0.33
2018-12-03T10:03:51.509Z,0.47
2018-12-03T10:04:51.530Z,0.37
2018-12-03T10:05:51.554Z,0.40
2018-12-03T10:06:51.579Z,0.42
2018-12-03T10:07:51.602Z,0.27
2018-12-03T11:36:53.668Z,0.44
2018-12-03T11:37:53.691Z,0.42
2018-12-03T11:38:53.717Z,0.48
2018-12-03T11:39:53.734Z,0.47
2018-12-03T11:40:53.762Z,0.45
2018-12-03T11:41:53.782Z,0.52
2018-12-03T11:42:53.805Z,0.40
2018-12-03T11:43:53.878Z,0.42
2018-12-03T11:44:53.855Z,0.40
2018-12-03T11:45:53.878Z,0.37
2018-12-03T11:46:53.896Z,0.40
2018-12-03T11:47:53.919Z,0.42
2018-12-03T11:48:53.943Z,0.45
2018-12-03T11:49:53.968Z,0.42
2018-12-03T11:50:53.989Z,0.44
2018-12-03T11:51:54.015Z,0.42
2018-12-03T11:52:54.034Z,0.45
2018-12-03T11:53:54.059Z,0.45
2018-12-03T11:54:54.084Z,0.42
2018-12-03T11:55:54.105Z,0.45
2018-12-03T11:56:54.129Z,0.42
2018-12-03T11:57:54.152Z,0.39
2018-12-03T11:58:54.177Z,0.44
2018-12-03T11:59:54.197Z,0.47
2018-12-03T12:00:54.218Z,0.45
2018-12-03T12:01:54.243Z,0.48
2018-12-03T12:02:54.457Z,0.37
2018-12-03T12:03:54.290Z,0.45
2018-12-03T12:04:54.312Z,0.44
2018-12-03T12:05:54.333Z,0.49
2018-12-03T12:06:54.357Z,0.40
2018-12-03T12:07:54.380Z,0.37
2018-12-03T12:08:54.402Z,0.39
2018-12-03T12:09:54.425Z,0.49
2018-12-03T12:10:54.448Z,0.47
2018-12-03T12:11:54.472Z,0.37
2018-12-03T12:12:54.495Z,0.42
2018-12-03T12:13:54.518Z,0.47
2018-12-03T12:14:54.542Z,0.45
2018-12-03T12:15:54.568Z,0.44
2018-12-03T12:16:54.586Z,0.44
2018-12-03T12:17:54.610Z,0.47
2018-12-03T12:18:54.633Z,0.47
2018-12-03T12:19:54.656Z,0.45
2018-12-03T12:20:54.680Z,0.45
2018-12-03T12:21:54.703Z,0.42
2018-12-03T12:22:54.726Z,0.45
2018-12-03T12:23:54.748Z,0.44
2018-12-03T12:24:54.773Z,0.47
2018-12-03T12:25:54.795Z,0.42
2018-12-03T12:26:54.818Z,0.48
2018-12-03T12:27:54.842Z,0.42
2018-12-03T12:28:54.866Z,0.48
2018-12-03T12:29:54.886Z,0.42
2018-12-03T12:30:54.908Z,0.39
2018-12-03T12:31:54.933Z,0.47
2018-12-03T12:32:54.958Z,0.45
2018-12-03T12:33:54.978Z,0.40
2018-12-03T12:34:55.002Z,0.40
2018-12-03T12:35:55.025Z,0.51
2018-12-03T12:36:55.046Z,0.48
2018-12-03T12:37:56.873Z,0.45
2018-12-03T12:38:55.092Z,0.39
2018-12-03T12:39:55.124Z,0.37
2018-12-03T12:40:55.142Z,0.39
2018-12-03T12:41:55.161Z,0.40
2018-12-03T12:42:55.188Z,0.40
2018-12-03T12:43:55.211Z,0.42
2018-12-03T12:44:55.230Z,0.40
2018-12-03T12:45:55.258Z,0.45
2018-12-03T12:46:55.279Z,0.44
2018-12-03T12:47:55.305Z,0.48
2018-12-03T12:48:55.326Z,0.40
2018-12-03T12:49:55.345Z,0.45
2018-12-03T12:50:55.373Z,0.47
2018-12-03T12:51:55.393Z,0.42
2018-12-03T12:52:55.414Z,0.48
2018-12-03T12:53:55.441Z,0.44
2018-12-03T12:54:55.460Z,0.42
2018-12-03T12:55:55.484Z,0.44
2018-12-03T12:56:55.509Z,0.37
2018-12-03T12:57:55.531Z,0.45
2018-12-03T12:58:55.554Z,0.39
2018-12-03T12:59:55.575Z,0.40
2018-12-03T13:00:55.601Z,0.40
2018-12-03T13:01:55.623Z,0.40
2018-12-03T13:02:55.643Z,0.49
2018-12-03T13:03:55.667Z,0.49
2018-12-03T13:04:55.690Z,0.42
2018-12-03T13:05:56.672Z,0.48
2018-12-03T13:06:55.735Z,0.51
2018-12-03T13:07:55.757Z,0.45
2018-12-03T13:08:55.781Z,0.44
2018-12-03T13:09:55.804Z,0.47
2018-12-03T13:10:55.829Z,0.48
2018-12-03T13:11:55.849Z,0.45
2018-12-03T13:12:55.872Z,0.44
2018-12-03T13:13:55.902Z,0.48
2018-12-03T13:14:55.919Z,0.49
2018-12-03T13:15:55.943Z,0.44
2018-12-03T13:16:55.998Z,0.56
2018-12-03T13:17:55.987Z,0.48
2018-12-03T13:18:56.010Z,0.37
2018-12-03T13:19:56.032Z,0.55
2018-12-03T13:20:56.056Z,0.47
2018-12-03T13:21:56.079Z,0.48
2018-12-03T13:22:56.101Z,0.44
2018-12-03T13:23:56.124Z,0.48
2018-12-03T13:24:56.149Z,0.40
2018-12-03T13:25:56.174Z,0.47
2018-12-03T13:26:56.199Z,0.45
2018-12-03T13:27:56.225Z,0.42
2018-12-03T13:28:56.240Z,0.42
2018-12-03T13:29:56.261Z,0.47
2018-12-03T13:30:56.285Z,0.44
2018-12-03T13:31:56.310Z,0.48
2018-12-03T13:32:56.329Z,0.45
2018-12-03T13:33:56.353Z,0.49
2018-12-03T13:34:56.375Z,0.48
2018-12-03T13:35:56.399Z,0.47
2018-12-03T13:36:56.420Z,0.47
2018-12-03T13:37:56.444Z,0.48
2018-12-03T13:38:56.469Z,0.49
2018-12-03T13:39:56.489Z,0.47
2018-12-03T13:40:56.513Z,0.47
2018-12-03T13:41:56.538Z,0.49
2018-12-03T13:42:56.558Z,0.47
2018-12-03T13:43:56.585Z,0.48
2018-12-03T13:44:56.604Z,0.48
2018-12-03T13:45:56.627Z,0.42
2018-12-03T13:46:56.650Z,0.48
2018-12-03T13:47:56.674Z,0.48
2018-12-03T13:48:56.698Z,0.45
2018-12-03T13:49:56.720Z,0.48
2018-12-03T13:50:56.741Z,0.48
2018-12-03T13:51:56.764Z,0.45
2018-12-03T13:52:56.794Z,0.39
2018-12-03T13:53:56.810Z,0.47
2018-12-03T13:54:56.833Z,0.44
2018-12-03T13:55:56.856Z,0.47
2018-12-03T13:56:56.881Z,0.48
2018-12-03T13:57:56.901Z,0.47
2018-12-03T13:58:56.924Z,0.47
2018-12-03T13:59:56.947Z,0.48
2018-12-03T14:00:56.969Z,0.48
2018-12-03T14:01:56.995Z,0.48
2018-12-03T14:02:57.017Z,0.48
2018-12-03T14:03:57.040Z,0.47
2018-12-03T14:04:57.061Z,0.49
2018-12-03T14:05:57.084Z,0.45
2018-12-03T14:06:57.106Z,0.47
2018-12-03T14:07:57.132Z,0.48
2018-12-03T14:08:57.152Z,0.49
2018-12-03T14:09:57.176Z,0.49
2018-12-03T14:10:57.196Z,0.45
2018-12-03T14:11:57.219Z,0.48
2018-12-03T14:12:57.242Z,0.45
2018-12-03T14:13:57.264Z,0.48
2018-12-03T14:14:57.286Z,0.44
2018-12-03T14:15:57.311Z,0.47
2018-12-03T14:16:57.333Z,0.48
2018-12-03T14:17:57.359Z,0.48
2018-12-03T14:18:57.381Z,0.44
2018-12-03T14:19:57.401Z,0.45
2018-12-03T14:20:57.424Z,0.45
2018-12-03T14:21:57.447Z,0.45
2018-12-03T14:22:57.469Z,0.47
2018-12-03T14:23:57.494Z,0.48
2018-12-03T14:24:57.515Z,0.48
2018-12-03T14:25:57.540Z,0.51
2018-12-03T14:26:57.558Z,0.48
2018-12-03T14:27:57.587Z,0.58
2018-12-03T14:28:57.609Z,0.40
2018-12-03T14:29:57.631Z,0.47
2018-12-03T14:30:57.652Z,0.48
2018-12-03T14:31:57.675Z,0.49
2018-12-03T14:32:57.697Z,0.52